createdAt,value
2019-03-16T00:01:04.983Z,90.22
2019-03-16T00:03:31.294Z,90.32
2019-03-16T00:05:57.705Z,90.27
2019-03-16T00:08:24.119Z,90.24
2019-03-16T00:10:50.514Z,90.28
2019-03-16T00:13:16.788Z,90.34
2019-03-16T00:15:43.093Z,90.31
2019-03-16T00:18:09.403Z,90.31
2019-03-16T00:20:35.708Z,90.26
2019-03-16T00:23:02.020Z,90.34
2019-03-16T00:25:28.331Z,90.38
2019-03-16T00:27:54.640Z,90.46
2019-03-16T00:30:20.949Z,90.46
2019-03-16T00:32:47.253Z,90.49
2019-03-16T00:35:13.563Z,90.52
2019-03-16T00:37:39.887Z,90.55
2019-03-16T00:40:06.192Z,90.62
2019-03-16T00:42:32.497Z,90.72
2019-03-16T00:44:58.810Z,90.78
2019-03-16T00:47:25.113Z,90.85
2019-03-16T00:49:51.414Z,90.91
2019-03-16T00:52:17.716Z,90.87
2019-03-16T00:54:44.057Z,91.02
2019-03-16T00:57:10.364Z,91.15
2019-03-16T00:59:36.676Z,91.27
2019-03-16T01:02:02.994Z,91.36
2019-03-16T01:04:29.296Z,91.44
2019-03-16T01:06:55.606Z,91.43
2019-03-16T01:09:21.914Z,91.53
2019-03-16T01:11:48.225Z,91.61
2019-03-16T01:14:14.532Z,91.64
2019-03-16T01:16:40.849Z,91.74
2019-03-16T01:19:07.186Z,91.87
2019-03-16T01:21:33.500Z,92.11
2019-03-16T01:23:59.814Z,92.42
2019-03-16T01:26:26.116Z,92.76
2019-03-16T01:28:52.424Z,93.13
2019-03-16T01:31:18.740Z,93.50
2019-03-16T01:33:45.044Z,93.85
2019-03-16T01:36:11.355Z,94.22
2019-03-16T01:38:37.668Z,94.59
2019-03-16T01:41:03.973Z,95.01
2019-03-16T01:43:30.279Z,95.46
2019-03-16T01:45:56.586Z,95.88
2019-03-16T01:48:22.917Z,96.26
2019-03-16T01:50:49.218Z,96.71
2019-03-16T01:53:15.538Z,97.12
2019-03-16T01:55:41.834Z,97.49
2019-03-16T01:58:08.148Z,97.87
2019-03-16T02:00:34.466Z,98.15
2019-03-16T02:03:00.773Z,98.46
2019-03-16T02:05:27.098Z,98.80
2019-03-16T02:07:53.412Z,99.24
2019-03-16T02:10:19.728Z,99.63
2019-03-16T02:12:46.031Z,99.96
2019-03-16T02:15:12.340Z,100.00
2019-03-16T02:17:38.653Z,100.00
2019-03-16T02:20:04.964Z,100.00
2019-03-16T02:22:31.281Z,100.00
2019-03-16T02:24:57.588Z,100.00
2019-03-16T02:27:23.920Z,100.00
2019-03-16T02:29:50.230Z,100.00
2019-03-16T02:32:16.544Z,100.00
2019-03-16T02:34:42.854Z,100.00
2019-03-16T02:37:09.161Z,100.00
2019-03-16T02:39:35.478Z,100.00
2019-03-16T02:42:01.829Z,100.00
2019-03-16T02:44:28.139Z,100.00
2019-03-16T02:46:54.481Z,100.00
2019-03-16T02:49:20.785Z,100.00
2019-03-16T02:51:47.094Z,100.00
2019-03-16T02:54:13.402Z,100.00
2019-03-16T02:56:39.739Z,100.00
2019-03-16T02:59:06.130Z,100.00
2019-03-16T03:01:32.675Z,100.00
2019-03-16T03:03:58.986Z,100.00
2019-03-16T03:06:25.299Z,100.00
2019-03-16T03:08:51.604Z,100.00
2019-03-16T03:11:17.933Z,100.00
2019-03-16T03:13:44.268Z,100.00
2019-03-16T03:16:10.552Z,100.00
2019-03-16T03:18:36.865Z,100.00
2019-03-16T03:21:03.228Z,100.00
2019-03-16T03:23:29.480Z,100.00
2019-03-16T03:25:55.806Z,100.00
2019-03-16T03:28:22.145Z,100.00
2019-03-16T03:30:48.472Z,100.00
2019-03-16T03:33:15.021Z,100.00
2019-03-16T03:35:41.108Z,100.00
2019-03-16T03:38:07.408Z,100.00
2019-03-16T03:40:33.720Z,100.00
2019-03-16T03:43:00.045Z,100.00
2019-03-16T03:45:26.353Z,100.00
2019-03-16T03:47:52.663Z,100.00
2019-03-16T03:50:18.973Z,100.00
2019-03-16T03:52:45.286Z,100.00
2019-03-16T03:55:11.602Z,100.00
2019-03-16T03:57:37.913Z,100.00
2019-03-16T04:00:04.226Z,100.00
2019-03-16T04:02:30.559Z,100.00
2019-03-16T04:04:56.875Z,100.00
2019-03-16T04:07:23.206Z,100.00
2019-03-16T04:09:49.481Z,100.00
2019-03-16T04:12:15.794Z,100.00
2019-03-16T04:14:42.100Z,100.00
2019-03-16T04:17:08.409Z,100.00
2019-03-16T04:19:34.820Z,100.00
2019-03-16T04:22:01.028Z,100.00
2019-03-16T04:24:27.357Z,100.00
2019-03-16T04:26:53.669Z,100.00
2019-03-16T04:29:20.939Z,100.00
2019-03-16T04:31:46.281Z,100.00
2019-03-16T04:34:12.587Z,100.00
2019-03-16T04:36:38.902Z,100.00
2019-03-16T04:39:05.220Z,100.00
2019-03-16T04:41:31.549Z,100.00
2019-03-16T04:43:57.859Z,100.00
2019-03-16T04:46:24.187Z,100.00
2019-03-16T04:48:50.490Z,100.00
2019-03-16T04:51:16.797Z,100.00
2019-03-16T04:53:43.109Z,100.00
2019-03-16T04:56:09.417Z,100.00
2019-03-16T04:58:35.727Z,100.00
2019-03-16T05:01:02.030Z,100.00
2019-03-16T05:03:28.359Z,100.00
2019-03-16T05:05:54.663Z,100.00
2019-03-16T05:08:20.988Z,100.00
2019-03-16T05:10:47.301Z,100.00
2019-03-16T05:13:13.610Z,100.00
2019-03-16T05:15:39.918Z,100.00
2019-03-16T05:18:06.222Z,100.00
2019-03-16T05:20:32.565Z,100.00
2019-03-16T05:22:58.873Z,100.00
2019-03-16T05:25:25.176Z,100.00
2019-03-16T05:27:51.504Z,100.00
2019-03-16T05:30:17.820Z,100.00
2019-03-16T05:32:44.135Z,100.00
2019-03-16T05:35:10.436Z,100.00
2019-03-16T05:37:36.747Z,100.00
2019-03-16T05:40:03.061Z,100.00
2019-03-16T05:42:29.378Z,100.00
2019-03-16T05:44:55.691Z,100.00
2019-03-16T05:47:21.998Z,100.00
2019-03-16T05:49:48.333Z,100.00
2019-03-16T05:52:14.653Z,100.00
2019-03-16T05:54:40.991Z,100.00
2019-03-16T05:57:07.323Z,100.00
2019-03-16T05:59:33.698Z,100.00
2019-03-16T06:02:00.006Z,100.00
2019-03-16T06:04:26.318Z,100.00
2019-03-16T06:06:52.628Z,100.00
2019-03-16T06:09:18.936Z,100.00
2019-03-16T06:11:45.339Z,100.00
2019-03-16T06:14:11.652Z,100.00
2019-03-16T06:16:38.035Z,100.00
2019-03-16T06:19:04.349Z,100.00
2019-03-16T06:21:30.672Z,100.00
2019-03-16T06:23:56.982Z,100.00
2019-03-16T06:26:23.291Z,100.00
2019-03-16T06:28:49.624Z,100.00
2019-03-16T06:31:15.934Z,100.00
2019-03-16T06:33:42.237Z,100.00
2019-03-16T06:36:08.553Z,100.00
2019-03-16T06:38:34.887Z,100.00
2019-03-16T06:41:01.188Z,100.00
2019-03-16T06:43:27.500Z,100.00
2019-03-16T06:45:53.835Z,100.00
2019-03-16T06:48:20.154Z,100.00
2019-03-16T06:50:46.456Z,100.00
2019-03-16T06:53:12.770Z,100.00
2019-03-16T06:55:39.096Z,100.00
2019-03-16T06:58:05.413Z,100.00
2019-03-16T07:00:31.712Z,90.03
2019-03-16T07:02:58.045Z,81.99
2019-03-16T07:05:37.240Z,76.28
2019-03-16T07:07:50.676Z,78.06
2019-03-16T07:10:16.989Z,75.58
2019-03-16T07:12:43.293Z,75.78
2019-03-16T07:15:09.627Z,73.90
2019-03-16T07:17:35.946Z,72.51
2019-03-16T07:20:02.261Z,71.22
2019-03-16T07:22:28.574Z,70.76
2019-03-16T07:24:54.885Z,72.49
2019-03-16T07:27:26.027Z,73.57
2019-03-16T07:29:47.531Z,72.78
2019-03-16T07:32:13.842Z,72.73
2019-03-16T07:34:40.154Z,71.52
2019-03-16T07:37:06.472Z,72.62
2019-03-16T07:39:32.775Z,72.03
2019-03-16T07:42:00.559Z,69.12
2019-03-16T07:44:25.399Z,70.11
2019-03-16T07:46:51.724Z,69.90
2019-03-16T07:49:18.045Z,67.86
2019-03-16T07:51:44.345Z,67.39
2019-03-16T07:54:10.652Z,67.17
2019-03-16T07:56:36.956Z,66.98
2019-03-16T07:59:03.284Z,67.32
2019-03-16T08:01:29.589Z,66.06
2019-03-16T08:03:55.907Z,67.47
2019-03-16T08:06:22.212Z,67.80
2019-03-16T08:08:48.548Z,66.73
2019-03-16T08:11:14.832Z,65.94
2019-03-16T08:13:41.137Z,66.68
2019-03-16T08:16:07.464Z,65.85
2019-03-16T08:18:33.779Z,65.08
2019-03-16T08:21:00.213Z,65.31
2019-03-16T08:23:26.509Z,63.50
2019-03-16T08:25:52.869Z,61.25
2019-03-16T08:28:19.159Z,62.75
2019-03-16T08:30:45.464Z,61.44
2019-03-16T08:33:11.772Z,61.11
2019-03-16T08:35:38.128Z,59.47
2019-03-16T08:38:04.391Z,57.26
2019-03-16T08:40:30.693Z,57.88
2019-03-16T08:42:57.001Z,57.53
2019-03-16T08:45:23.310Z,56.43
2019-03-16T08:47:49.647Z,55.56
2019-03-16T08:50:15.960Z,55.64
2019-03-16T08:52:42.263Z,55.12
2019-03-16T08:55:08.578Z,56.98
2019-03-16T08:57:34.882Z,55.05
2019-03-16T09:00:01.194Z,54.91
2019-03-16T09:02:27.506Z,54.13
2019-03-16T09:04:53.826Z,54.09
2019-03-16T09:07:20.133Z,57.55
2019-03-16T09:09:46.464Z,56.68
2019-03-16T09:12:12.768Z,52.61
2019-03-16T09:14:39.073Z,52.21
2019-03-16T09:17:05.381Z,51.01
2019-03-16T09:19:31.692Z,51.47
2019-03-16T09:21:57.999Z,49.23
2019-03-16T09:24:24.310Z,49.49
2019-03-16T09:26:50.623Z,48.73
2019-03-16T09:29:16.937Z,48.10
2019-03-16T09:31:43.274Z,48.58
2019-03-16T09:34:09.581Z,47.95
2019-03-16T09:36:35.914Z,48.72
2019-03-16T09:39:02.209Z,47.12
2019-03-16T09:41:28.516Z,48.82
2019-03-16T09:43:54.829Z,50.18
2019-03-16T09:46:21.161Z,48.13
2019-03-16T09:48:47.474Z,48.67
2019-03-16T09:51:13.783Z,48.48
2019-03-16T09:53:40.093Z,49.42
2019-03-16T09:56:06.402Z,49.96
2019-03-16T09:58:32.831Z,52.02
2019-03-16T10:00:59.170Z,53.48
2019-03-16T10:03:25.468Z,52.82
2019-03-16T10:05:51.780Z,50.33
2019-03-16T10:08:19.308Z,51.15
2019-03-16T10:10:44.406Z,53.04
2019-03-16T10:13:10.733Z,53.98
2019-03-16T10:15:37.044Z,52.33
2019-03-16T10:18:03.358Z,50.36
2019-03-16T10:20:29.686Z,52.11
2019-03-16T10:22:55.978Z,52.80
2019-03-16T10:25:22.282Z,53.87
2019-03-16T10:27:48.682Z,54.43
2019-03-16T10:30:14.934Z,54.43
2019-03-16T10:32:41.246Z,51.97
2019-03-16T10:35:07.554Z,52.48
2019-03-16T10:37:33.859Z,52.03
2019-03-16T10:40:00.252Z,52.65
2019-03-16T10:42:26.471Z,52.25
2019-03-16T10:44:52.795Z,52.38
2019-03-16T10:47:19.181Z,51.24
2019-03-16T10:49:45.495Z,51.97
2019-03-16T10:52:11.837Z,53.16
2019-03-16T10:54:38.107Z,51.97
2019-03-16T10:57:04.602Z,52.85
2019-03-16T10:59:30.721Z,51.38
2019-03-16T11:01:57.038Z,53.69
2019-03-16T11:04:23.345Z,52.78
2019-03-16T11:06:49.709Z,51.47
2019-03-16T11:09:16.023Z,51.71
2019-03-16T11:11:42.351Z,52.25
2019-03-16T11:14:08.661Z,51.84
2019-03-16T11:16:34.969Z,51.42
2019-03-16T11:19:01.280Z,51.54
2019-03-16T11:21:27.717Z,51.61
2019-03-16T11:23:54.050Z,51.14
2019-03-16T11:26:20.373Z,51.38
2019-03-16T11:28:46.680Z,50.65
2019-03-16T11:31:13.021Z,49.32
2019-03-16T11:33:39.337Z,50.76
2019-03-16T11:36:05.656Z,50.06
2019-03-16T11:38:32.269Z,49.12
2019-03-16T11:40:58.580Z,49.59
2019-03-16T11:43:24.892Z,50.16
2019-03-16T11:45:51.206Z,49.67
2019-03-16T11:48:17.518Z,49.86
2019-03-16T11:50:43.832Z,50.41
2019-03-16T11:53:10.138Z,50.80
2019-03-16T11:55:36.447Z,50.76
2019-03-16T11:58:02.753Z,50.85
2019-03-16T12:00:29.121Z,51.24
2019-03-16T12:02:55.423Z,51.78
2019-03-16T12:05:21.726Z,51.59
2019-03-16T12:07:48.100Z,52.26
2019-03-16T12:10:14.346Z,52.51
2019-03-16T12:12:40.694Z,51.71
2019-03-16T12:15:06.973Z,51.07
2019-03-16T12:17:33.300Z,50.08
2019-03-16T12:19:59.614Z,50.31
2019-03-16T12:22:25.947Z,49.87
2019-03-16T12:24:52.262Z,48.71
2019-03-16T12:27:18.594Z,49.35
2019-03-16T12:29:44.902Z,49.65
2019-03-16T12:32:11.225Z,49.11
2019-03-16T12:34:37.575Z,48.11
2019-03-16T12:37:03.893Z,49.10
2019-03-16T12:39:30.201Z,48.00
2019-03-16T12:41:56.564Z,48.44
2019-03-16T12:44:22.915Z,47.71
2019-03-16T12:46:49.211Z,47.36
2019-03-16T12:49:15.528Z,48.08
2019-03-16T12:51:41.828Z,47.46
2019-03-16T12:54:08.174Z,48.15
2019-03-16T12:56:34.518Z,47.50
2019-03-16T12:59:09.933Z,47.97
2019-03-16T13:01:27.182Z,47.54
2019-03-16T13:03:53.493Z,47.21
2019-03-16T13:06:19.847Z,47.89
2019-03-16T13:08:46.169Z,47.82
2019-03-16T13:11:12.477Z,46.81
2019-03-16T13:13:38.816Z,46.76
2019-03-16T13:16:05.118Z,45.94
2019-03-16T13:18:31.468Z,46.50
2019-03-16T13:20:57.776Z,45.94
2019-03-16T13:23:24.150Z,46.39
2019-03-16T13:25:50.455Z,45.87
2019-03-16T13:28:16.784Z,45.46
2019-03-16T13:30:43.106Z,45.22
2019-03-16T13:33:09.442Z,45.77
2019-03-16T13:35:35.747Z,45.80
2019-03-16T13:38:02.090Z,45.42
2019-03-16T13:40:28.405Z,45.25
2019-03-16T13:42:54.827Z,45.27
2019-03-16T13:45:21.147Z,46.03
2019-03-16T13:47:47.453Z,46.35
2019-03-16T13:50:13.825Z,46.23
2019-03-16T13:52:40.132Z,46.38
2019-03-16T13:55:06.435Z,46.28
2019-03-16T13:57:32.749Z,45.43
2019-03-16T14:00:10.865Z,45.08
2019-03-16T14:02:25.392Z,45.53
2019-03-16T14:04:51.702Z,44.62
2019-03-16T14:07:18.011Z,44.85
2019-03-16T14:09:47.553Z,42.89
2019-03-16T14:12:13.891Z,44.52
2019-03-16T14:14:40.222Z,44.95
2019-03-16T14:17:06.561Z,45.76
2019-03-16T14:19:32.883Z,45.65
2019-03-16T14:21:59.296Z,43.49
2019-03-16T14:24:25.635Z,42.78
2019-03-16T14:26:51.966Z,44.75
2019-03-16T14:29:18.357Z,44.96
2019-03-16T14:31:44.677Z,43.26
2019-03-16T14:34:11.080Z,43.38
2019-03-16T14:36:37.405Z,42.54
2019-03-16T14:39:03.713Z,42.83
2019-03-16T14:41:30.020Z,44.58
2019-03-16T14:43:56.377Z,44.71
2019-03-16T14:46:22.718Z,47.62
2019-03-16T14:48:49.059Z,48.22
2019-03-16T14:51:15.369Z,47.38
2019-03-16T14:53:41.869Z,46.67
2019-03-16T14:56:08.175Z,47.56
2019-03-16T14:58:34.498Z,47.74
2019-03-16T15:01:00.825Z,47.56
2019-03-16T15:03:27.201Z,47.04
2019-03-16T15:05:53.518Z,47.60
2019-03-16T15:08:19.825Z,48.41
2019-03-16T15:10:46.132Z,47.58
2019-03-16T15:13:12.477Z,47.91
2019-03-16T15:15:38.796Z,46.69
2019-03-16T15:18:05.115Z,46.96
2019-03-16T15:20:31.447Z,47.15
2019-03-16T15:22:57.759Z,48.15
2019-03-16T15:25:24.065Z,47.68
2019-03-16T15:27:50.379Z,48.09
2019-03-16T15:30:16.718Z,47.81
2019-03-16T15:32:43.067Z,47.69
2019-03-16T15:35:09.369Z,48.39
2019-03-16T15:37:35.700Z,48.73
2019-03-16T15:40:02.017Z,47.41
2019-03-16T15:42:28.351Z,47.98
2019-03-16T15:44:54.665Z,47.94
2019-03-16T15:47:20.979Z,48.11
2019-03-16T15:49:47.299Z,47.73
2019-03-16T15:52:13.604Z,48.35
2019-03-16T15:54:40.111Z,46.41
2019-03-16T15:57:06.457Z,45.98
2019-03-16T15:59:32.756Z,46.33
2019-03-16T16:01:59.079Z,45.30
2019-03-16T16:04:25.380Z,45.34
2019-03-16T16:06:51.704Z,44.49
2019-03-16T16:09:18.043Z,45.72
2019-03-16T16:11:44.358Z,46.95
2019-03-16T16:14:10.640Z,46.37
2019-03-16T16:16:36.959Z,47.16
2019-03-16T16:19:03.264Z,47.68
2019-03-16T16:21:29.601Z,46.15
2019-03-16T16:23:55.967Z,46.47
2019-03-16T16:26:22.283Z,45.69
2019-03-16T16:28:48.612Z,45.73
2019-03-16T16:31:16.559Z,44.97
2019-03-16T16:33:41.220Z,45.06
2019-03-16T16:36:08.619Z,45.17
2019-03-16T16:38:33.866Z,47.07
2019-03-16T16:41:00.179Z,45.64
2019-03-16T16:43:26.563Z,46.23
2019-03-16T16:45:52.883Z,47.74
2019-03-16T16:48:19.210Z,47.80
2019-03-16T16:50:45.538Z,47.46
2019-03-16T16:53:11.844Z,47.52
2019-03-16T16:55:38.159Z,47.55
2019-03-16T16:58:04.470Z,47.64
2019-03-16T17:00:30.778Z,48.10
2019-03-16T17:02:57.089Z,47.74
2019-03-16T17:05:23.766Z,48.11
2019-03-16T17:07:50.086Z,47.54
2019-03-16T17:10:16.398Z,48.03
2019-03-16T17:12:42.715Z,47.85
2019-03-16T17:15:09.036Z,48.55
2019-03-16T17:17:35.805Z,48.20
2019-03-16T17:20:01.721Z,48.86
2019-03-16T17:22:28.037Z,48.21
2019-03-16T17:24:54.396Z,47.78
2019-03-16T17:27:20.682Z,48.33
2019-03-16T17:29:47.060Z,47.95
2019-03-16T17:32:13.381Z,47.82
2019-03-16T17:34:41.242Z,47.47
2019-03-16T17:37:06.028Z,47.74
2019-03-16T17:39:32.343Z,48.19
2019-03-16T17:41:58.718Z,48.08
2019-03-16T17:44:25.235Z,47.83
2019-03-16T17:46:51.510Z,48.21
2019-03-16T17:49:17.835Z,46.56
2019-03-16T17:51:44.166Z,47.11
2019-03-16T17:54:10.518Z,47.52
2019-03-16T17:56:36.871Z,46.33
2019-03-16T17:59:03.184Z,46.38
2019-03-16T18:01:29.518Z,47.00
2019-03-16T18:03:55.834Z,47.16
2019-03-16T18:06:22.165Z,46.42
2019-03-16T18:08:48.489Z,47.19
2019-03-16T18:11:14.804Z,47.14
2019-03-16T18:13:41.134Z,47.06
2019-03-16T18:16:07.446Z,47.66
2019-03-16T18:18:33.778Z,45.88
2019-03-16T18:21:00.133Z,46.21
2019-03-16T18:23:26.432Z,46.63
2019-03-16T18:25:52.732Z,45.73
2019-03-16T18:28:19.035Z,45.55
2019-03-16T18:30:45.354Z,46.79
2019-03-16T18:33:11.698Z,46.34
2019-03-16T18:35:38.023Z,46.86
2019-03-16T18:38:04.328Z,47.12
2019-03-16T18:40:30.643Z,46.16
2019-03-16T18:42:56.979Z,46.38
2019-03-16T18:45:23.290Z,46.36
2019-03-16T18:47:49.612Z,46.56
2019-03-16T18:50:15.923Z,47.64
2019-03-16T18:52:42.244Z,48.26
2019-03-16T18:55:08.602Z,47.34
2019-03-16T18:57:34.898Z,47.56
2019-03-16T19:00:01.209Z,48.05
2019-03-16T19:02:27.527Z,46.62
2019-03-16T19:04:53.837Z,46.71
2019-03-16T19:07:20.507Z,47.28
2019-03-16T19:09:46.805Z,47.88
2019-03-16T19:12:13.112Z,47.75
2019-03-16T19:14:39.452Z,47.31
2019-03-16T19:17:05.765Z,47.01
2019-03-16T19:19:32.083Z,47.09
2019-03-16T19:22:01.258Z,47.67
2019-03-16T19:24:27.567Z,47.87
2019-03-16T19:26:53.890Z,47.13
2019-03-16T19:29:20.203Z,47.03
2019-03-16T19:31:46.525Z,47.45
2019-03-16T19:34:12.837Z,47.37
2019-03-16T19:36:39.148Z,47.76
2019-03-16T19:39:05.460Z,47.72
2019-03-16T19:41:31.787Z,47.65
2019-03-16T19:43:58.088Z,47.33
2019-03-16T19:46:24.419Z,47.33
2019-03-16T19:48:50.724Z,47.07
2019-03-16T19:51:17.033Z,46.57
2019-03-16T19:53:43.353Z,47.68
2019-03-16T19:56:09.699Z,47.21
2019-03-16T19:58:36.012Z,47.21
2019-03-16T20:01:02.347Z,47.35
2019-03-16T20:03:28.662Z,47.08
2019-03-16T20:05:54.984Z,46.98
2019-03-16T20:08:21.308Z,47.05
2019-03-16T20:10:47.679Z,47.17
2019-03-16T20:13:13.962Z,47.94
2019-03-16T20:15:40.269Z,47.61
2019-03-16T20:18:06.587Z,47.44
2019-03-16T20:20:32.896Z,48.22
2019-03-16T20:22:59.222Z,48.07
2019-03-16T20:25:25.540Z,48.26
2019-03-16T20:27:51.873Z,48.98
2019-03-16T20:30:26.489Z,52.58
2019-03-16T20:32:48.206Z,50.44
2019-03-16T20:35:10.847Z,50.02
2019-03-16T20:37:37.131Z,49.67
2019-03-16T20:40:03.501Z,58.80
2019-03-16T20:42:29.808Z,62.84
2019-03-16T20:44:56.087Z,62.55
2019-03-16T20:47:22.399Z,63.19
2019-03-16T20:49:48.709Z,64.10
2019-03-16T20:52:15.064Z,65.01
2019-03-16T20:54:41.349Z,65.86
2019-03-16T20:57:07.668Z,66.60
2019-03-16T20:59:33.971Z,67.51
2019-03-16T21:02:00.304Z,68.49
2019-03-16T21:04:26.614Z,69.31
2019-03-16T21:06:52.924Z,70.08
2019-03-16T21:09:19.236Z,70.93
2019-03-16T21:11:45.541Z,71.73
2019-03-16T21:14:11.858Z,72.53
2019-03-16T21:16:38.173Z,73.29
2019-03-16T21:19:04.497Z,74.13
2019-03-16T21:21:30.801Z,74.92
2019-03-16T21:23:57.127Z,77.05
2019-03-16T21:26:23.432Z,79.56
2019-03-16T21:28:49.758Z,80.37
2019-03-16T21:31:16.118Z,81.04
2019-03-16T21:33:42.471Z,81.84
2019-03-16T21:36:08.783Z,82.37
2019-03-16T21:38:35.093Z,83.00
2019-03-16T21:41:01.411Z,83.51
2019-03-16T21:43:27.738Z,84.13
2019-03-16T21:45:54.044Z,84.65
2019-03-16T21:48:20.356Z,85.11
2019-03-16T21:50:46.674Z,85.59
2019-03-16T21:53:12.982Z,86.20
2019-03-16T21:55:39.349Z,86.63
2019-03-16T21:58:05.660Z,87.16
2019-03-16T22:00:31.974Z,87.75
2019-03-16T22:02:58.285Z,88.29
2019-03-16T22:05:24.616Z,88.74
2019-03-16T22:07:50.941Z,89.17
2019-03-16T22:10:17.250Z,89.76
2019-03-16T22:12:43.628Z,90.23
2019-03-16T22:15:09.972Z,90.74
2019-03-16T22:17:36.282Z,91.22
2019-03-16T22:20:02.595Z,91.67
2019-03-16T22:22:28.909Z,92.12
2019-03-16T22:24:55.230Z,92.65
2019-03-16T22:27:21.561Z,93.17
2019-03-16T22:29:47.887Z,93.70
2019-03-16T22:32:14.210Z,94.08
2019-03-16T22:34:42.638Z,94.59
2019-03-16T22:37:06.857Z,95.03
2019-03-16T22:39:33.183Z,95.49
2019-03-16T22:41:59.522Z,95.93
2019-03-16T22:44:25.834Z,96.29
2019-03-16T22:46:52.148Z,96.79
2019-03-16T22:49:18.481Z,97.15
2019-03-16T22:51:44.800Z,97.57
2019-03-16T22:54:11.144Z,97.99
2019-03-16T22:56:37.452Z,98.23
2019-03-16T22:59:03.777Z,98.58
2019-03-16T23:01:32.995Z,98.94
2019-03-16T23:04:06.953Z,99.31
2019-03-16T23:06:25.645Z,99.70
2019-03-16T23:08:52.008Z,100.00
2019-03-16T23:11:18.272Z,100.00
2019-03-16T23:13:44.624Z,100.00
2019-03-16T23:16:10.989Z,100.00
2019-03-16T23:18:37.250Z,100.00
2019-03-16T23:21:03.565Z,100.00
2019-03-16T23:23:29.891Z,100.00
2019-03-16T23:25:56.242Z,100.00
2019-03-16T23:28:22.552Z,100.00
2019-03-16T23:30:48.867Z,100.00
2019-03-16T23:33:15.194Z,100.00
2019-03-16T23:35:41.497Z,100.00
2019-03-16T23:38:09.609Z,100.00
2019-03-16T23:40:34.140Z,100.00
2019-03-16T23:43:00.587Z,100.00
2019-03-16T23:45:26.890Z,100.00
2019-03-16T23:47:56.002Z,100.00
2019-03-16T23:50:22.310Z,100.00
2019-03-16T23:52:48.752Z,100.00
2019-03-16T23:55:14.947Z,100.00
2019-03-16T23:57:41.253Z,100.00
